Time;durP1;ratioP1;P1;durP2;ratioP2;P2;SDS_P1;SDS_P2;PMS_P1;PMS_P2;Temp;Humidity;BMP_temperature;BMP_pressure;BME280_temperature;BME280_humidity;BME280_pressure;Samples;Min_cycle;Max_cycle;Signal;HPM_P1;HPM_P2
2023/03/22 07:45:58;;;;;;;0.00;0.00;;;;;;;;;;2192683;22;20505;-77
2023/03/22 07:46:51;;;;;;;0.00;0.00;;;;;;;;;;2183808;22;20449;-77
2023/03/22 07:47:43;;;;;;;0.00;0.00;;;;;;;;;;2181729;22;20169;-77
2023/03/22 07:48:34;;;;;;;0.00;0.00;;;;;;;;;;2181597;22;20657;-77
2023/03/22 07:49:27;;;;;;;0.00;0.00;;;;;;;;;;2181887;22;20241;-77
2023/03/22 07:50:18;;;;;;;0.00;0.00;;;;;;;;;;2182372;22;20196;-77
2023/03/22 07:51:10;;;;;;;0.00;0.00;;;;;;;;;;2181166;22;20165;-77
2023/03/22 07:52:02;;;;;;;0.00;0.00;;;;;;;;;;2181223;22;20226;-77
2023/03/22 07:52:53;;;;;;;0.00;0.00;;;;;;;;;;2181028;22;20228;-78
2023/03/22 07:53:45;;;;;;;0.00;0.00;;;;;;;;;;2182072;22;20180;-78
2023/03/22 07:54:36;;;;;;;0.00;0.00;;;;;;;;;;2181744;22;20216;-76
2023/03/22 07:55:28;;;;;;;0.00;0.00;;;;;;;;;;2179416;22;20268;-76
2023/03/22 07:56:19;;;;;;;0.00;0.00;;;;;;;;;;2181311;22;20276;-76
2023/03/22 07:57:11;;;;;;;0.00;0.00;;;;;;;;;;2181458;22;20176;-75
2023/03/22 07:58:03;;;;;;;0.00;0.00;;;;;;;;;;2181650;22;20218;-75
2023/03/22 07:58:55;;;;;;;0.00;0.00;;;;;;;;;;2181483;22;20600;-75
2023/03/22 07:59:46;;;;;;;0.00;0.00;;;;;;;;;;2182060;22;20596;-75
2023/03/22 08:00:38;;;;;;;0.00;0.00;;;;;;;;;;2179487;22;20508;-75
2023/03/22 08:01:30;;;;;;;0.00;0.00;;;;;;;;;;2181792;22;20184;-75
2023/03/22 08:02:22;;;;;;;0.00;0.00;;;;;;;;;;2181784;22;20180;-75
2023/03/22 08:03:13;;;;;;;0.00;0.00;;;;;;;;;;2181704;22;20506;-75
2023/03/22 08:04:05;;;;;;;0.00;0.00;;;;;;;;;;2181789;22;20505;-75
2023/03/22 08:04:56;;;;;;;0.00;0.00;;;;;;;;;;2181588;22;20238;-75
2023/03/22 08:05:48;;;;;;;0.00;0.00;;;;;;;;;;2179239;22;20262;-74
2023/03/22 08:06:41;;;;;;;0.00;0.00;;;;;;;;;;2181967;22;20664;-74
2023/03/22 08:07:33;;;;;;;0.00;0.00;;;;;;;;;;2185026;22;20183;-74
2023/03/22 08:08:25;;;;;;;0.00;0.00;;;;;;;;;;2181963;22;20709;-74
2023/03/22 08:09:17;;;;;;;0.00;0.00;;;;;;;;;;2181794;22;20252;-74
2023/03/22 08:10:08;;;;;;;0.00;0.00;;;;;;;;;;2182429;22;20277;-74
2023/03/22 08:11:00;;;;;;;0.00;0.00;;;;;;;;;;2179309;22;20623;-74
2023/03/22 08:11:51;;;;;;;0.00;0.00;;;;;;;;;;2181732;22;20234;-74
2023/03/22 08:12:44;;;;;;;0.00;0.00;;;;;;;;;;2182018;22;20588;-74
2023/03/22 08:13:35;;;;;;;0.00;0.00;;;;;;;;;;2181742;22;20177;-74
2023/03/22 08:14:27;;;;;;;0.00;0.00;;;;;;;;;;2181800;22;20176;-74
2023/03/22 08:15:18;;;;;;;0.00;0.00;;;;;;;;;;2179624;22;20589;-76
2023/03/22 08:16:10;;;;;;;0.00;0.00;;;;;;;;;;2180964;22;20503;-75
2023/03/22 08:17:03;;;;;;;0.00;0.00;;;;;;;;;;2181489;22;20293;-75
2023/03/22 08:17:56;;;;;;;0.00;0.00;;;;;;;;;;2181614;22;20233;-75
2023/03/22 08:18:47;;;;;;;0.00;0.00;;;;;;;;;;2182056;22;20177;-75
2023/03/22 08:19:40;;;;;;;0.00;0.00;;;;;;;;;;2181999;22;20524;-75
2023/03/22 08:20:31;;;;;;;0.00;0.00;;;;;;;;;;2179743;22;20208;-75
2023/03/22 08:21:23;;;;;;;0.00;0.00;;;;;;;;;;2181323;22;20187;-75
2023/03/22 08:22:14;;;;;;;0.00;0.00;;;;;;;;;;2181044;22;20219;-75
2023/03/22 08:23:06;;;;;;;0.00;0.00;;;;;;;;;;2181577;22;20184;-75
2023/03/22 08:23:57;;;;;;;0.00;0.00;;;;;;;;;;2181442;22;20557;-75
2023/03/22 08:24:49;;;;;;;0.00;0.00;;;;;;;;;;2181541;22;20224;-75
2023/03/22 08:25:41;;;;;;;0.00;0.00;;;;;;;;;;2179163;22;20216;-75
2023/03/22 08:26:33;;;;;;;0.00;0.00;;;;;;;;;;2181458;22;20456;-75
2023/03/22 08:27:24;;;;;;;0.00;0.00;;;;;;;;;;2181341;22;20180;-75
2023/03/22 08:28:16;;;;;;;0.00;0.00;;;;;;;;;;2181257;22;20204;-75
2023/03/22 08:29:07;;;;;;;0.00;0.00;;;;;;;;;;2181208;22;20249;-75
2023/03/22 08:29:59;;;;;;;0.00;0.00;;;;;;;;;;2181016;22;20625;-75
2023/03/22 08:30:50;;;;;;;0.00;0.00;;;;;;;;;;2179074;22;20239;-75
2023/03/22 08:31:42;;;;;;;0.00;0.00;;;;;;;;;;2184929;22;20169;-74
2023/03/22 08:32:35;;;;;;;0.00;0.00;;;;;;;;;;2181135;22;20180;-74
2023/03/22 08:33:27;;;;;;;0.00;0.00;;;;;;;;;;2181411;22;20181;-74
2023/03/22 08:34:18;;;;;;;0.00;0.00;;;;;;;;;;2181060;22;20216;-74
2023/03/22 08:35:11;;;;;;;0.00;0.00;;;;;;;;;;2181727;22;20516;-74
2023/03/22 08:36:05;;;;;;;0.00;0.00;;;;;;;;;;2178707;22;20212;-74
2023/03/22 08:36:57;;;;;;;0.00;0.00;;;;;;;;;;2181225;22;20226;-74
2023/03/22 08:37:52;;;;;;;0.00;0.00;;;;;;;;;;2181318;22;20245;-74
2023/03/22 08:38:44;;;;;;;0.00;0.00;;;;;;;;;;2181093;22;20263;-74
2023/03/22 08:39:36;;;;;;;0.00;0.00;;;;;;;;;;2181311;22;20215;-74
2023/03/22 08:40:28;;;;;;;0.00;0.00;;;;;;;;;;2178942;22;20627;-75
2023/03/22 08:41:19;;;;;;;0.00;0.00;;;;;;;;;;2180930;22;20177;-75
2023/03/22 08:42:11;;;;;;;0.00;0.00;;;;;;;;;;2181409;22;20183;-75
2023/03/22 08:43:03;;;;;;;0.00;0.00;;;;;;;;;;2181329;22;20225;-75
2023/03/22 08:43:56;;;;;;;0.00;0.00;;;;;;;;;;2181518;22;20372;-75
2023/03/22 08:44:47;;;;;;;0.00;0.00;;;;;;;;;;2181407;22;20176;-75
2023/03/22 08:45:39;;;;;;;0.00;0.00;;;;;;;;;;2179035;22;20243;-75
2023/03/22 08:46:31;;;;;;;0.00;0.00;;;;;;;;;;2189374;22;20726;-75
2023/03/22 08:47:22;;;;;;;0.00;0.00;;;;;;;;;;2191949;22;20236;-75
2023/03/22 08:48:15;;;;;;;0.00;0.00;;;;;;;;;;2192499;22;20172;-75
2023/03/22 08:49:09;;;;;;;0.00;0.00;;;;;;;;;;2191876;22;20180;-75
2023/03/22 08:50:01;;;;;;;0.00;0.00;;;;;;;;;;2192340;22;20178;-75
2023/03/22 08:50:52;;;;;;;0.00;0.00;;;;;;;;;;2189333;22;20235;-75
2023/03/22 08:51:44;;;;;;;0.00;0.00;;;;;;;;;;2192337;22;20676;-75
2023/03/22 08:52:35;;;;;;;0.00;0.00;;;;;;;;;;2191906;22;20592;-75
2023/03/22 08:53:27;;;;;;;0.00;0.00;;;;;;;;;;2191940;22;20584;-75
2023/03/22 08:54:19;;;;;;;0.00;0.00;;;;;;;;;;2192198;22;20212;-75
2023/03/22 08:55:11;;;;;;;0.00;0.00;;;;;;;;;;2191639;22;20176;-75
2023/03/22 08:56:02;;;;;;;0.00;0.00;;;;;;;;;;2189949;22;20208;-74
2023/03/22 08:56:54;;;;;;;0.00;0.00;;;;;;;;;;2192005;22;20739;-74
2023/03/22 08:57:49;;;;;;;0.00;0.00;;;;;;;;;;2192240;22;20176;-74
2023/03/22 08:58:45;;;;;;;0.00;0.00;;;;;;;;;;2192061;22;20180;-74
2023/03/22 08:59:36;;;;;;;0.00;0.00;;;;;;;;;;2195196;22;20555;-74
2023/03/22 09:00:28;;;;;;;0.00;0.00;;;;;;;;;;2189860;22;20278;-75
2023/03/22 09:01:19;;;;;;;0.00;0.00;;;;;;;;;;2191739;22;20250;-75
2023/03/22 09:02:11;;;;;;;0.00;0.00;;;;;;;;;;2192217;22;20172;-75
2023/03/22 09:03:02;;;;;;;0.00;0.00;;;;;;;;;;2192155;22;20232;-75
2023/03/22 09:03:56;;;;;;;0.00;0.00;;;;;;;;;;2191897;22;20218;-75
2023/03/22 09:04:47;;;;;;;0.00;0.00;;;;;;;;;;2192320;22;20172;-75
2023/03/22 09:05:39;;;;;;;0.00;0.00;;;;;;;;;;2189589;22;20234;-75
2023/03/22 09:06:31;;;;;;;0.00;0.00;;;;;;;;;;2192050;22;20160;-74
2023/03/22 09:07:23;;;;;;;0.00;0.00;;;;;;;;;;2191896;22;20191;-74
2023/03/22 09:08:15;;;;;;;0.03;0.03;;;;;;;;;;2192075;22;20182;-74
2023/03/22 09:09:06;;;;;;;0.00;0.00;;;;;;;;;;2191850;22;20233;-74
2023/03/22 09:09:58;;;;;;;0.00;0.00;;;;;;;;;;2192249;22;20595;-74
2023/03/22 09:10:50;;;;;;;0.00;0.00;;;;;;;;;;2189806;22;20299;-74
2023/03/22 09:11:42;;;;;;;0.00;0.00;;;;;;;;;;2192001;22;20176;-74
2023/03/22 09:12:33;;;;;;;0.00;0.00;;;;;;;;;;2192060;22;20249;-74
2023/03/22 09:13:25;;;;;;;0.00;0.00;;;;;;;;;;2192055;22;20204;-74
2023/03/22 09:14:16;;;;;;;0.00;0.00;;;;;;;;;;2191764;22;20176;-74
2023/03/22 09:15:08;;;;;;;0.00;0.00;;;;;;;;;;2192560;22;20187;-74
2023/03/22 09:16:00;;;;;;;0.00;0.00;;;;;;;;;;2188802;22;20288;-74
2023/03/22 09:16:52;;;;;;;0.00;0.00;;;;;;;;;;2191383;22;20203;-74
2023/03/22 09:17:43;;;;;;;0.00;0.00;;;;;;;;;;2191677;22;20176;-74
2023/03/22 09:18:35;;;;;;;0.00;0.00;;;;;;;;;;2195155;22;20209;-74
2023/03/22 09:19:27;;;;;;;0.00;0.00;;;;;;;;;;2191340;22;20176;-74
2023/03/22 09:20:24;;;;;;;0.00;0.00;;;;;;;;;;2189840;22;20240;-74
2023/03/22 09:21:15;;;;;;;0.00;0.00;;;;;;;;;;2190345;22;20164;-74
2023/03/22 09:22:07;;;;;;;0.00;0.00;;;;;;;;;;2192076;22;20173;-74
2023/03/22 09:22:58;;;;;;;0.00;0.00;;;;;;;;;;2191753;22;20180;-74
2023/03/22 09:23:50;;;;;;;0.00;0.00;;;;;;;;;;2192189;22;20207;-74
2023/03/22 09:24:41;;;;;;;0.00;0.00;;;;;;;;;;2192131;22;20172;-74
2023/03/22 09:25:33;;;;;;;0.00;0.00;;;;;;;;;;2189796;22;20211;-75
2023/03/22 09:26:24;;;;;;;0.00;0.00;;;;;;;;;;2191966;22;20628;-75
2023/03/22 09:27:16;;;;;;;0.00;0.00;;;;;;;;;;2192017;22;20187;-75
2023/03/22 09:28:07;;;;;;;0.00;0.00;;;;;;;;;;2192238;22;20730;-75
2023/03/22 09:28:59;;;;;;;0.00;0.00;;;;;;;;;;2192007;22;20581;-75
2023/03/22 09:29:52;;;;;;;0.00;0.00;;;;;;;;;;2192332;22;20178;-75
2023/03/22 09:30:43;;;;;;;0.00;0.00;;;;;;;;;;2189785;22;20267;-75
2023/03/22 09:31:35;;;;;;;0.00;0.00;;;;;;;;;;2192139;22;20160;-75
2023/03/22 09:32:26;;;;;;;0.00;0.00;;;;;;;;;;2192331;22;20180;-75
2023/03/22 09:33:18;;;;;;;0.00;0.00;;;;;;;;;;2192123;22;20479;-75
2023/03/22 09:34:09;;;;;;;0.00;0.00;;;;;;;;;;2191977;22;20248;-74
2023/03/22 09:35:03;;;;;;;0.00;0.00;;;;;;;;;;2192004;22;20168;-75
2023/03/22 09:35:55;;;;;;;0.00;0.00;;;;;;;;;;2189143;22;20211;-74
2023/03/22 09:36:48;;;;;;;0.00;0.00;;;;;;;;;;2192033;22;20180;-74
2023/03/22 09:37:39;;;;;;;0.00;0.00;;;;;;;;;;2191952;22;20255;-74
2023/03/22 09:38:34;;;;;;;0.03;0.03;;;;;;;;;;2192011;22;20183;-74
2023/03/22 09:39:25;;;;;;;0.00;0.00;;;;;;;;;;2191919;22;20285;-74
2023/03/22 09:40:18;;;;;;;0.00;0.00;;;;;;;;;;2193881;22;20234;-74
2023/03/22 09:41:12;;;;;;;0.00;0.00;;;;;;;;;;2191461;22;20180;-74
2023/03/22 09:42:06;;;;;;;0.00;0.00;;;;;;;;;;2192093;22;20517;-74
2023/03/22 09:42:59;;;;;;;0.00;0.00;;;;;;;;;;2192041;22;20650;-74
2023/03/22 09:43:52;;;;;;;0.00;0.00;;;;;;;;;;2191978;22;20172;-74
2023/03/22 09:44:44;;;;;;;0.00;0.00;;;;;;;;;;2191903;22;20176;-74
2023/03/22 09:45:39;;;;;;;0.00;0.00;;;;;;;;;;2191813;22;20176;-74
2023/03/22 09:46:31;;;;;;;0.00;0.00;;;;;;;;;;2191341;22;20208;-75
2023/03/22 09:47:28;;;;;;;0.00;0.00;;;;;;;;;;2191926;22;20176;-75
2023/03/22 09:48:20;;;;;;;0.00;0.00;;;;;;;;;;2195707;22;20203;-75
2023/03/22 09:49:14;;;;;;;0.00;0.00;;;;;;;;;;2192034;22;20345;-75
2023/03/22 09:50:11;;;;;;;0.00;0.00;;;;;;;;;;2192264;22;20181;-75
2023/03/22 09:51:05;;;;;;;0.00;0.00;;;;;;;;;;2195171;22;20442;-74
2023/03/22 09:51:56;;;;;;;0.00;0.00;;;;;;;;;;2191816;22;20254;-74
2023/03/22 09:52:48;;;;;;;0.00;0.00;;;;;;;;;;2192593;22;20658;-74
2023/03/22 09:53:39;;;;;;;0.00;0.00;;;;;;;;;;2192992;22;20180;-74
2023/03/22 09:54:33;;;;;;;0.00;0.00;;;;;;;;;;2192702;22;20179;-74
2023/03/22 09:55:30;;;;;;;0.00;0.00;;;;;;;;;;2191844;22;20176;-75
2023/03/22 09:56:23;;;;;;;0.00;0.00;;;;;;;;;;2191568;22;20164;-75
2023/03/22 09:57:19;;;;;;;0.00;0.00;;;;;;;;;;2192710;22;20160;-74
2023/03/22 09:58:16;;;;;;;0.00;0.00;;;;;;;;;;2192545;22;20507;-75
2023/03/22 09:59:11;;;;;;;0.00;0.00;;;;;;;;;;2192472;22;20165;-74
2023/03/22 10:00:11;;;;;;;0.00;0.00;;;;;;;;;;2192977;22;20211;-75
2023/03/22 10:01:04;;;;;;;0.00;0.00;;;;;;;;;;2190685;22;20211;-74
2023/03/22 10:01:58;;;;;;;0.00;0.00;;;;;;;;;;2192745;22;20172;-75
2023/03/22 10:02:53;;;;;;;0.00;0.00;;;;;;;;;;2192465;22;20284;-75
2023/03/22 10:04:01;;;;;;;0.00;0.00;;;;;;;;;;2193103;22;20172;-75
2023/03/22 10:04:57;;;;;;;0.00;0.00;;;;;;;;;;2192707;22;20160;-75
2023/03/22 10:05:53;;;;;;;0.00;0.00;;;;;;;;;;2190140;22;20626;-75
2023/03/22 10:06:46;;;;;;;0.00;0.00;;;;;;;;;;2192511;22;20156;-75
2023/03/22 10:07:44;;;;;;;0.00;0.00;;;;;;;;;;2192637;22;20187;-75
2023/03/22 10:08:39;;;;;;;0.00;0.00;;;;;;;;;;2192439;22;20164;-74
2023/03/22 10:09:34;;;;;;;0.00;0.00;;;;;;;;;;2192579;22;20160;-74
2023/03/22 10:10:25;;;;;;;0.00;0.00;;;;;;;;;;2190463;22;20180;-74
2023/03/22 10:11:22;;;;;;;0.00;0.00;;;;;;;;;;2192245;22;20283;-74
2023/03/22 10:12:15;;;;;;;0.00;0.00;;;;;;;;;;2192789;22;20225;-74
2023/03/22 10:13:12;;;;;;;0.00;0.00;;;;;;;;;;2192611;22;20223;-74
2023/03/22 10:14:07;;;;;;;0.00;0.00;;;;;;;;;;2192626;22;20160;-74
2023/03/22 10:15:03;;;;;;;0.00;0.00;;;;;;;;;;2192417;22;20245;-74
2023/03/22 10:15:57;;;;;;;0.00;0.00;;;;;;;;;;2189175;22;20237;-75
2023/03/22 10:16:50;;;;;;;0.00;0.00;;;;;;;;;;2192259;22;20188;-75
2023/03/22 10:17:44;;;;;;;0.00;0.00;;;;;;;;;;2192787;22;20557;-75
2023/03/22 10:18:37;;;;;;;0.00;0.00;;;;;;;;;;2192767;22;20191;-75
2023/03/22 10:19:31;;;;;;;0.00;0.00;;;;;;;;;;2192551;22;20268;-75
2023/03/22 10:20:28;;;;;;;0.00;0.00;;;;;;;;;;2190214;22;20172;-77
2023/03/22 10:21:21;;;;;;;0.00;0.00;;;;;;;;;;2192090;22;20498;-77
2023/03/22 10:22:15;;;;;;;0.00;0.00;;;;;;;;;;2192406;22;20610;-77
2023/03/22 10:23:11;;;;;;;0.00;0.00;;;;;;;;;;2192316;22;20204;-77
2023/03/22 10:24:05;;;;;;;0.00;0.00;;;;;;;;;;2191798;22;20172;-77
2023/03/22 10:24:56;;;;;;;0.00;0.00;;;;;;;;;;2191919;22;20611;-75
2023/03/22 10:25:51;;;;;;;0.00;0.00;;;;;;;;;;2189075;22;20230;-74
2023/03/22 10:26:45;;;;;;;0.00;0.00;;;;;;;;;;2192510;22;20176;-74
2023/03/22 10:27:37;;;;;;;0.00;0.00;;;;;;;;;;2192141;22;20172;-74
2023/03/22 10:28:31;;;;;;;0.00;0.00;;;;;;;;;;2192596;22;20267;-74
2023/03/22 10:29:24;;;;;;;0.00;0.00;;;;;;;;;;2192647;22;20210;-74
2023/03/22 10:30:19;;;;;;;0.00;0.00;;;;;;;;;;2190495;22;20179;-75
2023/03/22 10:31:14;;;;;;;0.00;0.00;;;;;;;;;;2192209;22;20211;-75
2023/03/22 10:32:13;;;;;;;0.00;0.00;;;;;;;;;;2192576;22;20180;-75
2023/03/22 10:33:12;;;;;;;0.00;0.00;;;;;;;;;;2192720;22;20179;-75
2023/03/22 10:34:05;;;;;;;0.00;0.00;;;;;;;;;;2192199;22;20171;-75
2023/03/22 10:34:57;;;;;;;0.00;0.00;;;;;;;;;;2193077;22;20559;-75
2023/03/22 10:35:49;;;;;;;0.00;0.00;;;;;;;;;;2190220;22;20714;-75
2023/03/22 10:36:43;;;;;;;0.00;0.00;;;;;;;;;;2192328;22;20183;-75
2023/03/22 10:37:36;;;;;;;0.00;0.00;;;;;;;;;;2192437;22;20181;-74
2023/03/22 10:38:29;;;;;;;0.00;0.00;;;;;;;;;;2192664;22;20195;-75
2023/03/22 10:39:27;;;;;;;0.00;0.00;;;;;;;;;;2192568;22;20184;-75
2023/03/22 10:40:20;;;;;;;0.00;0.00;;;;;;;;;;2190588;22;20210;-75
2023/03/22 10:41:13;;;;;;;0.00;0.00;;;;;;;;;;2191966;22;20532;-74
2023/03/22 10:42:06;;;;;;;0.00;0.00;;;;;;;;;;2192442;22;20609;-75
2023/03/22 10:43:00;;;;;;;0.00;0.00;;;;;;;;;;2195893;22;20513;-75
2023/03/22 10:43:53;;;;;;;0.00;0.00;;;;;;;;;;2192493;22;20523;-75
2023/03/22 10:44:47;;;;;;;0.00;0.00;;;;;;;;;;2196227;22;20228;-75
2023/03/22 10:45:40;;;;;;;0.00;0.00;;;;;;;;;;2189676;22;20196;-75
2023/03/22 10:46:32;;;;;;;0.00;0.00;;;;;;;;;;2191500;22;20200;-75
2023/03/22 10:47:31;;;;;;;0.00;0.00;;;;;;;;;;2192538;22;20182;-75
2023/03/22 10:48:25;;;;;;;0.00;0.00;;;;;;;;;;2196074;22;20429;-75
2023/03/22 10:49:23;;;;;;;0.00;0.00;;;;;;;;;;2192653;22;20460;-74
2023/03/22 10:50:18;;;;;;;0.00;0.00;;;;;;;;;;2193736;22;20168;-74
2023/03/22 10:51:11;;;;;;;0.00;0.00;;;;;;;;;;2192068;22;20165;-74
2023/03/22 10:52:10;;;;;;;0.00;0.00;;;;;;;;;;2192364;22;20182;-74
2023/03/22 10:53:03;;;;;;;0.00;0.00;;;;;;;;;;2192492;22;20221;-74
2023/03/22 10:53:57;;;;;;;0.00;0.00;;;;;;;;;;2192634;22;20168;-74
2023/03/22 10:54:48;;;;;;;0.00;0.00;;;;;;;;;;2192577;22;20228;-74
2023/03/22 10:55:40;;;;;;;0.00;0.00;;;;;;;;;;2189977;22;20211;-75
2023/03/22 10:56:31;;;;;;;0.00;0.00;;;;;;;;;;2192193;22;20587;-75
2023/03/22 10:57:24;;;;;;;0.00;0.00;;;;;;;;;;2192357;22;20180;-75
2023/03/22 10:58:16;;;;;;;0.00;0.00;;;;;;;;;;2192412;22;20203;-75
2023/03/22 10:59:10;;;;;;;0.00;0.00;;;;;;;;;;2192042;22;20172;-75
2023/03/22 11:00:08;;;;;;;0.00;0.00;;;;;;;;;;2192604;22;20314;-75
2023/03/22 11:01:04;;;;;;;0.00;0.00;;;;;;;;;;2189844;22;20629;-75
2023/03/22 11:01:55;;;;;;;0.00;0.00;;;;;;;;;;2192655;22;20157;-75
2023/03/22 11:02:51;;;;;;;0.00;0.00;;;;;;;;;;2192503;22;20233;-74
2023/03/22 11:03:44;;;;;;;0.00;0.00;;;;;;;;;;2192525;22;20243;-75
2023/03/22 11:04:37;;;;;;;0.00;0.00;;;;;;;;;;2192207;22;20176;-75
2023/03/22 11:05:29;;;;;;;0.00;0.00;;;;;;;;;;2190278;22;20251;-75
2023/03/22 11:06:24;;;;;;;0.00;0.00;;;;;;;;;;2192176;22;20655;-74
2023/03/22 11:07:26;;;;;;;0.00;0.00;;;;;;;;;;2192459;22;20180;-75
2023/03/22 11:08:18;;;;;;;0.00;0.00;;;;;;;;;;2196108;22;20649;-75
2023/03/22 11:09:11;;;;;;;0.00;0.00;;;;;;;;;;2191885;22;20180;-75
2023/03/22 11:10:14;;;;;;;0.00;0.00;;;;;;;;;;2193565;22;20172;-75
2023/03/22 11:11:06;;;;;;;0.00;0.00;;;;;;;;;;2189832;22;20481;-75
2023/03/22 11:11:59;;;;;;;0.00;0.00;;;;;;;;;;2192533;22;20176;-75
2023/03/22 11:12:52;;;;;;;0.00;0.00;;;;;;;;;;2192535;22;20176;-75
2023/03/22 11:13:49;;;;;;;0.00;0.00;;;;;;;;;;2192268;22;20183;-75
2023/03/22 11:14:42;;;;;;;0.00;0.00;;;;;;;;;;2192523;22;20546;-75
2023/03/22 11:15:35;;;;;;;0.00;0.00;;;;;;;;;;2190107;22;20275;-75
2023/03/22 11:16:26;;;;;;;0.00;0.00;;;;;;;;;;2192187;22;20244;-75
2023/03/22 11:17:19;;;;;;;0.00;0.00;;;;;;;;;;2192490;22;20187;-75
2023/03/22 11:18:11;;;;;;;0.00;0.00;;;;;;;;;;2192648;22;20256;-75
2023/03/22 11:19:04;;;;;;;0.00;0.00;;;;;;;;;;2192496;22;20240;-75
2023/03/22 11:19:57;;;;;;;0.00;0.00;;;;;;;;;;2192701;22;20183;-75
2023/03/22 11:20:59;;;;;;;0.00;0.00;;;;;;;;;;2190197;22;20550;-75
2023/03/22 11:21:51;;;;;;;0.00;0.00;;;;;;;;;;2192222;22;20241;-75
2023/03/22 11:22:46;;;;;;;0.00;0.00;;;;;;;;;;2192452;22;20168;-74
2023/03/22 11:23:38;;;;;;;0.00;0.00;;;;;;;;;;2192224;22;20203;-74
2023/03/22 11:24:31;;;;;;;0.00;0.00;;;;;;;;;;2192276;22;20642;-74
2023/03/22 11:25:27;;;;;;;0.00;0.00;;;;;;;;;;2189868;22;20160;-74
2023/03/22 11:26:26;;;;;;;0.00;0.00;;;;;;;;;;2192248;22;20161;-74
2023/03/22 11:27:18;;;;;;;0.00;0.00;;;;;;;;;;2192609;22;20342;-74
2023/03/22 11:28:16;;;;;;;0.00;0.00;;;;;;;;;;2192435;22;20190;-74
2023/03/22 11:29:11;;;;;;;0.00;0.00;;;;;;;;;;2192348;22;20557;-74
2023/03/22 11:30:18;;;;;;;0.00;0.00;;;;;;;;;;2192654;22;20591;-74
2023/03/22 11:31:11;;;;;;;0.00;0.00;;;;;;;;;;2190046;22;20243;-75
2023/03/22 11:32:02;;;;;;;0.00;0.00;;;;;;;;;;2195915;22;20487;-75
2023/03/22 11:33:02;;;;;;;0.00;0.00;;;;;;;;;;2192840;22;20172;-75
2023/03/22 11:33:56;;;;;;;0.00;0.00;;;;;;;;;;2192549;22;20180;-75
2023/03/22 11:34:48;;;;;;;0.00;0.00;;;;;;;;;;2192868;22;20172;-75
2023/03/22 11:35:39;;;;;;;0.00;0.00;;;;;;;;;;2190324;22;20264;-74
2023/03/22 11:36:31;;;;;;;0.00;0.00;;;;;;;;;;2191848;22;20452;-74
2023/03/22 11:37:22;;;;;;;0.00;0.00;;;;;;;;;;2192515;22;20247;-74
2023/03/22 11:38:28;;;;;;;0.00;0.00;;;;;;;;;;2192512;22;20175;-74
2023/03/22 11:39:20;;;;;;;0.00;0.00;;;;;;;;;;2192849;22;20176;-74
2023/03/22 11:40:15;;;;;;;0.00;0.00;;;;;;;;;;2192388;22;20507;-74
2023/03/22 11:41:07;;;;;;;0.00;0.00;;;;;;;;;;2191046;22;20200;-74
2023/03/22 11:42:00;;;;;;;0.00;0.00;;;;;;;;;;2192876;22;20165;-74
2023/03/22 11:42:52;;;;;;;0.00;0.00;;;;;;;;;;2192882;22;20176;-74
2023/03/22 11:43:47;;;;;;;0.00;0.00;;;;;;;;;;2196500;22;20172;-74
2023/03/22 11:44:39;;;;;;;0.00;0.00;;;;;;;;;;2192739;22;20618;-74
2023/03/22 11:45:32;;;;;;;0.00;0.00;;;;;;;;;;2190606;22;20187;-75
2023/03/22 11:46:24;;;;;;;0.00;0.00;;;;;;;;;;2191724;22;20212;-75
2023/03/22 11:47:16;;;;;;;0.00;0.00;;;;;;;;;;2193048;22;20633;-75
2023/03/22 11:48:09;;;;;;;0.00;0.00;;;;;;;;;;2193068;22;20172;-75
2023/03/22 11:49:03;;;;;;;0.00;0.00;;;;;;;;;;2192653;22;20370;-75
2023/03/22 11:49:55;;;;;;;0.00;0.00;;;;;;;;;;2193155;22;20602;-75
2023/03/22 11:50:48;;;;;;;0.00;0.00;;;;;;;;;;2190296;22;20265;-75
2023/03/22 11:51:39;;;;;;;0.00;0.00;;;;;;;;;;2192592;22;20480;-75
2023/03/22 11:52:31;;;;;;;0.00;0.00;;;;;;;;;;2192725;22;20210;-74
2023/03/22 11:53:24;;;;;;;0.00;0.00;;;;;;;;;;2192898;22;20592;-74
2023/03/22 11:54:23;;;;;;;0.00;0.00;;;;;;;;;;2192686;22;20605;-74
2023/03/22 11:55:16;;;;;;;0.00;0.00;;;;;;;;;;2190441;22;20554;-75
2023/03/22 11:56:10;;;;;;;0.00;0.00;;;;;;;;;;2192506;22;20502;-75
2023/03/22 11:57:03;;;;;;;0.00;0.00;;;;;;;;;;2192451;22;20214;-74
2023/03/22 11:57:55;;;;;;;0.00;0.00;;;;;;;;;;2196341;22;20199;-75
2023/03/22 11:58:54;;;;;;;0.00;0.00;;;;;;;;;;2192578;22;20249;-74
2023/03/22 11:59:47;;;;;;;0.00;0.00;;;;;;;;;;2192856;22;20536;-75
2023/03/22 12:00:38;;;;;;;0.00;0.00;;;;;;;;;;2190366;22;20293;-75
2023/03/22 12:01:34;;;;;;;0.00;0.00;;;;;;;;;;2192560;22;20190;-75
2023/03/22 12:02:27;;;;;;;0.00;0.00;;;;;;;;;;2192578;22;20160;-75
2023/03/22 12:03:21;;;;;;;0.00;0.00;;;;;;;;;;2192605;22;20523;-75
2023/03/22 12:04:15;;;;;;;0.00;0.00;;;;;;;;;;2192562;22;20258;-75
2023/03/22 12:05:11;;;;;;;0.00;0.00;;;;;;;;;;2192787;22;20176;-75
2023/03/22 12:06:05;;;;;;;0.00;0.00;;;;;;;;;;2189954;22;20718;-75
2023/03/22 12:06:58;;;;;;;0.00;0.00;;;;;;;;;;2192624;22;20205;-75
2023/03/22 12:07:52;;;;;;;0.00;0.00;;;;;;;;;;2192491;22;20180;-75
2023/03/22 12:08:46;;;;;;;0.00;0.00;;;;;;;;;;2192511;22;20214;-75
2023/03/22 12:09:40;;;;;;;0.00;0.00;;;;;;;;;;2192168;22;20567;-75
2023/03/22 12:10:37;;;;;;;0.00;0.00;;;;;;;;;;2190425;22;20347;-74
2023/03/22 12:11:31;;;;;;;0.00;0.00;;;;;;;;;;2191990;22;20164;-74
2023/03/22 12:12:26;;;;;;;0.00;0.00;;;;;;;;;;2192335;22;20180;-74
2023/03/22 12:13:18;;;;;;;0.00;0.00;;;;;;;;;;2192851;22;20176;-74
2023/03/22 12:14:14;;;;;;;0.00;0.00;;;;;;;;;;2191858;22;20186;-74
2023/03/22 12:15:07;;;;;;;0.00;0.00;;;;;;;;;;2192958;22;20260;-74
2023/03/22 12:16:01;;;;;;;0.00;0.00;;;;;;;;;;2189152;22;20279;-75
2023/03/22 12:16:54;;;;;;;0.00;0.00;;;;;;;;;;2192291;22;20259;-75
2023/03/22 12:17:49;;;;;;;0.00;0.00;;;;;;;;;;2192132;22;20176;-75
2023/03/22 12:18:44;;;;;;;0.00;0.00;;;;;;;;;;2192411;22;20176;-75
2023/03/22 12:19:39;;;;;;;0.00;0.00;;;;;;;;;;2192250;22;20172;-75
2023/03/22 12:20:35;;;;;;;0.00;0.00;;;;;;;;;;2192357;22;20213;-75
2023/03/22 12:21:27;;;;;;;0.00;0.00;;;;;;;;;;2192257;22;20212;-74
2023/03/22 12:22:21;;;;;;;0.00;0.00;;;;;;;;;;2192026;22;20247;-75
2023/03/22 12:23:14;;;;;;;0.00;0.00;;;;;;;;;;2192296;22;20180;-75
2023/03/22 12:24:23;;;;;;;0.00;0.00;;;;;;;;;;2195643;22;20706;-74
2023/03/22 12:25:16;;;;;;;0.00;0.00;;;;;;;;;;2190130;22;20168;-75
2023/03/22 12:26:13;;;;;;;0.00;0.00;;;;;;;;;;2191954;22;20342;-74
2023/03/22 12:27:07;;;;;;;0.00;0.00;;;;;;;;;;2192359;22;20221;-75
2023/03/22 12:28:01;;;;;;;0.00;0.00;;;;;;;;;;2192202;22;20836;-75
2023/03/22 12:28:53;;;;;;;0.00;0.00;;;;;;;;;;2195523;22;20232;-75
2023/03/22 12:29:47;;;;;;;0.00;0.00;;;;;;;;;;2195640;22;20453;-75
2023/03/22 12:30:40;;;;;;;0.00;0.00;;;;;;;;;;2189840;22;20212;-75
2023/03/22 12:31:32;;;;;;;0.00;0.00;;;;;;;;;;2191982;22;20260;-74
2023/03/22 12:32:26;;;;;;;0.00;0.00;;;;;;;;;;2192833;22;20196;-74
2023/03/22 12:33:20;;;;;;;0.00;0.00;;;;;;;;;;2193095;22;20564;-75
2023/03/22 12:34:14;;;;;;;0.00;0.00;;;;;;;;;;2192658;22;20244;-75
2023/03/22 12:35:08;;;;;;;0.00;0.00;;;;;;;;;;2193136;22;20183;-74
2023/03/22 12:36:01;;;;;;;0.00;0.00;;;;;;;;;;2190597;22;20652;-74
2023/03/22 12:36:55;;;;;;;0.00;0.00;;;;;;;;;;2192537;22;20196;-74
2023/03/22 12:37:49;;;;;;;0.00;0.00;;;;;;;;;;2192134;22;20180;-74
2023/03/22 12:38:42;;;;;;;0.00;0.00;;;;;;;;;;2191927;22;20240;-74
2023/03/22 12:39:37;;;;;;;0.00;0.00;;;;;;;;;;2192144;22;20259;-74
2023/03/22 12:40:31;;;;;;;0.00;0.00;;;;;;;;;;2189947;22;20283;-74
2023/03/22 12:41:26;;;;;;;0.00;0.00;;;;;;;;;;2192098;22;20176;-74
2023/03/22 12:42:20;;;;;;;0.00;0.00;;;;;;;;;;2192276;22;20607;-74
2023/03/22 12:43:14;;;;;;;0.00;0.00;;;;;;;;;;2191963;22;20187;-74
2023/03/22 12:44:10;;;;;;;0.00;0.00;;;;;;;;;;2191888;22;20226;-74
2023/03/22 12:45:11;;;;;;;0.00;0.00;;;;;;;;;;2191868;22;20152;-74
2023/03/22 12:46:04;;;;;;;0.00;0.00;;;;;;;;;;2189421;22;20558;-74
2023/03/22 12:46:57;;;;;;;0.00;0.00;;;;;;;;;;2195857;22;20571;-74
2023/03/22 12:47:51;;;;;;;0.00;0.00;;;;;;;;;;2192194;22;20176;-74
2023/03/22 12:48:44;;;;;;;0.00;0.00;;;;;;;;;;2192396;22;20178;-74
2023/03/22 12:49:36;;;;;;;0.00;0.00;;;;;;;;;;2192149;22;20587;-73
2023/03/22 12:50:31;;;;;;;0.00;0.00;;;;;;;;;;2190356;22;20705;-74
2023/03/22 12:51:22;;;;;;;0.00;0.00;;;;;;;;;;2191778;22;20586;-74
2023/03/22 12:52:16;;;;;;;0.00;0.00;;;;;;;;;;2192038;22;20191;-74
2023/03/22 12:53:11;;;;;;;0.00;0.00;;;;;;;;;;2192122;22;20180;-75
2023/03/22 12:54:03;;;;;;;0.00;0.00;;;;;;;;;;2192193;22;20168;-73
2023/03/22 12:54:55;;;;;;;0.00;0.00;;;;;;;;;;2192351;22;20172;-74
2023/03/22 12:55:49;;;;;;;0.00;0.00;;;;;;;;;;2189201;22;20210;-74
2023/03/22 12:56:41;;;;;;;0.00;0.00;;;;;;;;;;2192108;22;20244;-74
2023/03/22 12:57:33;;;;;;;0.00;0.00;;;;;;;;;;2192000;22;20583;-75
2023/03/22 12:58:25;;;;;;;0.00;0.00;;;;;;;;;;2192098;22;20175;-74
2023/03/22 12:59:18;;;;;;;0.00;0.00;;;;;;;;;;2192001;22;20543;-74
2023/03/22 13:00:14;;;;;;;0.00;0.00;;;;;;;;;;2191253;22;20559;-74
2023/03/22 13:01:15;;;;;;;0.00;0.00;;;;;;;;;;2191214;22;20219;-73
2023/03/22 13:02:12;;;;;;;0.00;0.00;;;;;;;;;;2192469;22;20161;-73
2023/03/22 13:03:07;;;;;;;0.00;0.00;;;;;;;;;;2192488;22;20156;-73
2023/03/22 13:04:00;;;;;;;0.00;0.00;;;;;;;;;;2192347;22;20176;-73
2023/03/22 13:04:52;;;;;;;0.00;0.00;;;;;;;;;;2192374;22;20474;-73
2023/03/22 13:05:45;;;;;;;0.00;0.00;;;;;;;;;;2189605;22;20638;-74